createdAt,value
2024-02-17T00:01:25.621Z,1.23
2024-02-17T00:04:28.683Z,1.40
2024-02-17T00:07:30.902Z,1.27
2024-02-17T00:10:33.208Z,1.30
2024-02-17T00:13:35.208Z,1.40
2024-02-17T00:16:37.440Z,1.20
2024-02-17T00:19:39.944Z,1.77
2024-02-17T00:22:42.688Z,2.10
2024-02-17T00:25:44.892Z,1.23
2024-02-17T00:28:46.998Z,1.43
2024-02-17T00:31:48.928Z,1.57
2024-02-17T00:34:51.259Z,1.30
2024-02-17T00:37:53.319Z,1.77
2024-02-17T00:40:55.487Z,1.20
2024-02-17T00:43:57.784Z,1.10
2024-02-17T00:47:00.037Z,1.30
2024-02-17T00:50:02.093Z,1.53
2024-02-17T00:53:04.534Z,1.30
2024-02-17T00:56:06.948Z,1.10
2024-02-17T00:59:08.956Z,1.10
2024-02-17T01:02:11.204Z,1.67
2024-02-17T01:05:14.103Z,1.23
2024-02-17T01:08:16.065Z,1.50
2024-02-17T01:11:20.883Z,1.80
2024-02-17T01:14:22.960Z,2.17
2024-02-17T01:17:25.071Z,1.80
2024-02-17T01:20:27.500Z,1.60
2024-02-17T01:23:29.851Z,1.87
2024-02-17T01:26:31.996Z,1.60
2024-02-17T01:29:34.063Z,1.53
2024-02-17T01:32:36.059Z,1.50
2024-02-17T01:35:39.043Z,1.60
2024-02-17T01:38:41.017Z,1.47
2024-02-17T01:41:43.155Z,1.50
2024-02-17T01:44:45.251Z,1.23
2024-02-17T01:47:47.668Z,1.47
2024-02-17T01:50:49.814Z,1.33
2024-02-17T01:53:52.149Z,1.50
2024-02-17T01:56:54.216Z,1.60
2024-02-17T01:59:57.370Z,1.27
2024-02-17T02:02:59.960Z,2.00
2024-02-17T02:06:03.435Z,1.83
2024-02-17T02:09:05.757Z,1.80
2024-02-17T02:12:08.121Z,1.80
2024-02-17T02:15:12.400Z,1.77
2024-02-17T02:18:15.298Z,1.70
2024-02-17T02:21:18.149Z,1.67
2024-02-17T02:24:20.411Z,1.50
2024-02-17T02:27:22.575Z,1.40
2024-02-17T02:30:25.309Z,1.30
2024-02-17T02:33:27.608Z,1.30
2024-02-17T02:36:30.079Z,0.87
2024-02-17T02:39:32.220Z,1.27
2024-02-17T02:42:34.361Z,1.40
2024-02-17T02:45:36.466Z,1.10
2024-02-17T02:48:38.837Z,1.07
2024-02-17T02:51:40.881Z,1.20
2024-02-17T02:54:43.376Z,1.80
2024-02-17T02:57:45.624Z,1.57
2024-02-17T03:00:48.791Z,2.67
2024-02-17T03:03:50.944Z,1.57
2024-02-17T03:06:53.175Z,1.87
2024-02-17T03:09:55.514Z,1.57
2024-02-17T03:12:59.100Z,1.50
2024-02-17T03:16:01.237Z,1.30
2024-02-17T03:19:03.465Z,1.40
2024-02-17T03:22:07.015Z,1.40
2024-02-17T03:25:09.577Z,1.23
2024-02-17T03:28:11.626Z,1.50
2024-02-17T03:31:13.746Z,1.17
2024-02-17T03:34:15.856Z,1.17
2024-02-17T03:37:21.045Z,1.23
2024-02-17T03:40:22.986Z,1.10
2024-02-17T03:43:25.160Z,1.20
2024-02-17T03:46:27.204Z,1.13
2024-02-17T03:49:29.290Z,1.27
2024-02-17T03:52:31.467Z,1.37
2024-02-17T03:55:33.500Z,1.20
2024-02-17T03:58:35.484Z,1.30
2024-02-17T04:01:39.583Z,1.23
2024-02-17T04:04:41.829Z,1.33
2024-02-17T04:07:45.050Z,1.10
2024-02-17T04:10:47.302Z,1.20
2024-02-17T04:13:49.648Z,1.40
2024-02-17T04:16:51.688Z,0.90
2024-02-17T04:19:54.014Z,1.20
2024-02-17T04:22:57.054Z,1.30
2024-02-17T04:26:01.508Z,1.10
2024-02-17T04:29:04.466Z,1.17
2024-02-17T04:32:06.579Z,1.30
2024-02-17T04:35:09.071Z,1.53
2024-02-17T04:38:12.094Z,1.17
2024-02-17T04:41:14.112Z,1.30
2024-02-17T04:44:16.086Z,1.40
2024-02-17T04:47:18.034Z,1.70
2024-02-17T04:50:20.560Z,1.47
2024-02-17T04:53:22.594Z,1.83
2024-02-17T04:56:24.702Z,1.97
2024-02-17T04:59:26.645Z,2.00
2024-02-17T05:02:28.831Z,1.50
2024-02-17T05:05:31.315Z,1.77
2024-02-17T05:08:33.339Z,1.97
2024-02-17T05:11:35.674Z,2.03
2024-02-17T05:14:38.765Z,2.17
2024-02-17T05:17:40.974Z,2.17
2024-02-17T05:20:43.012Z,1.70
2024-02-17T05:23:44.939Z,2.20
2024-02-17T05:26:46.902Z,2.53
2024-02-17T05:29:49.318Z,2.07
2024-02-17T05:32:52.786Z,1.83
2024-02-17T05:35:55.929Z,2.47
2024-02-17T05:38:57.999Z,2.20
2024-02-17T05:42:01.148Z,2.50
2024-02-17T05:45:04.370Z,2.70
2024-02-17T05:48:06.728Z,3.40
2024-02-17T05:51:08.890Z,3.00
2024-02-17T05:54:11.341Z,2.70
2024-02-17T05:57:13.485Z,2.53
2024-02-17T06:00:15.812Z,2.70
2024-02-17T06:03:17.964Z,2.77
2024-02-17T06:06:20.043Z,2.67
2024-02-17T06:09:22.927Z,2.90
2024-02-17T06:12:25.006Z,2.63
2024-02-17T06:15:27.193Z,2.53
2024-02-17T06:18:47.766Z,2.90
2024-02-17T06:21:49.954Z,2.47
2024-02-17T06:24:52.042Z,2.80
2024-02-17T06:27:54.181Z,2.80
2024-02-17T06:30:56.244Z,2.83
2024-02-17T06:33:58.476Z,2.43
2024-02-17T06:37:04.344Z,2.40
2024-02-17T06:40:07.966Z,2.60
2024-02-17T06:43:09.932Z,2.43
2024-02-17T06:46:14.684Z,2.50
2024-02-17T06:49:16.718Z,1.93
2024-02-17T06:52:19.118Z,2.67
2024-02-17T06:55:21.353Z,1.90
2024-02-17T06:58:24.074Z,2.00
2024-02-17T07:01:26.138Z,2.60
2024-02-17T07:04:29.071Z,3.30
2024-02-17T07:07:31.133Z,3.20
2024-02-17T07:10:33.235Z,3.43
2024-02-17T07:13:35.318Z,3.20
2024-02-17T07:16:38.150Z,3.17
2024-02-17T07:19:40.240Z,2.90
2024-02-17T07:22:43.902Z,2.77
2024-02-17T07:25:49.111Z,2.80
2024-02-17T07:28:51.414Z,2.97
2024-02-17T07:31:53.482Z,3.07
2024-02-17T07:34:56.404Z,2.97
2024-02-17T07:37:58.876Z,2.70
2024-02-17T07:41:00.975Z,2.57
2024-02-17T07:44:03.303Z,2.27
2024-02-17T07:47:05.519Z,2.40
2024-02-17T07:50:09.101Z,2.87
2024-02-17T07:53:12.122Z,2.47
2024-02-17T07:56:14.723Z,3.13
2024-02-17T07:59:16.727Z,2.67
2024-02-17T08:02:18.684Z,3.20
2024-02-17T08:05:21.669Z,3.23
2024-02-17T08:08:23.709Z,3.13
2024-02-17T08:11:25.857Z,3.70
2024-02-17T08:14:30.401Z,3.50
2024-02-17T08:17:33.023Z,3.50
2024-02-17T08:20:35.052Z,2.80
2024-02-17T08:23:37.497Z,3.17
2024-02-17T08:26:39.550Z,3.07
2024-02-17T08:29:42.210Z,2.90
2024-02-17T08:32:44.668Z,2.70
2024-02-17T08:35:47.038Z,2.80
2024-02-17T08:38:58.457Z,3.23
2024-02-17T08:42:00.864Z,4.17
2024-02-17T08:45:02.891Z,4.57
2024-02-17T08:48:05.844Z,5.10
2024-02-17T08:51:09.568Z,5.37
2024-02-17T08:54:12.070Z,5.40
2024-02-17T08:57:14.001Z,4.77
2024-02-17T09:00:16.978Z,4.60
2024-02-17T09:03:19.260Z,4.50
2024-02-17T09:06:21.636Z,4.33
2024-02-17T09:09:23.809Z,4.03
2024-02-17T09:12:26.019Z,3.97
2024-02-17T09:15:28.200Z,4.17
2024-02-17T09:18:34.304Z,3.73
2024-02-17T09:21:38.389Z,3.77
2024-02-17T09:24:41.077Z,2.90
2024-02-17T09:27:43.345Z,3.23
2024-02-17T09:30:45.549Z,2.80
2024-02-17T09:33:47.682Z,3.83
2024-02-17T09:36:50.011Z,5.67
2024-02-17T09:39:52.091Z,6.10
2024-02-17T09:42:56.666Z,5.60
2024-02-17T09:45:58.802Z,4.93
2024-02-17T09:49:02.414Z,4.67
2024-02-17T09:52:05.828Z,5.20
2024-02-17T09:55:10.330Z,5.07
2024-02-17T09:58:13.245Z,5.50
2024-02-17T10:01:15.582Z,3.73
2024-02-17T10:04:19.206Z,4.53
2024-02-17T10:07:22.332Z,4.20
2024-02-17T10:10:25.413Z,3.40
2024-02-17T10:13:28.225Z,3.07
2024-02-17T10:16:32.251Z,2.97
2024-02-17T10:19:36.068Z,2.50
2024-02-17T10:22:38.976Z,2.57
2024-02-17T10:25:42.402Z,4.07
2024-02-17T10:28:53.631Z,3.17
2024-02-17T10:31:55.837Z,3.40
2024-02-17T10:34:58.713Z,2.97
2024-02-17T10:38:00.769Z,2.80
2024-02-17T10:41:02.751Z,3.00
2024-02-17T10:44:06.553Z,3.50
2024-02-17T10:47:08.750Z,4.27
2024-02-17T10:50:18.024Z,3.10
2024-02-17T10:53:55.653Z,3.07
2024-02-17T10:56:58.301Z,3.27
2024-02-17T11:00:01.479Z,3.23
2024-02-17T11:03:05.696Z,3.40
2024-02-17T11:06:10.969Z,3.33
2024-02-17T11:09:13.617Z,3.90
2024-02-17T11:12:28.325Z,3.53
2024-02-17T11:15:37.052Z,3.70
2024-02-17T11:18:43.103Z,3.50
2024-02-17T11:21:48.163Z,4.47
2024-02-17T11:24:50.953Z,3.67
2024-02-17T11:27:56.055Z,4.27
2024-02-17T11:31:00.344Z,4.77
2024-02-17T11:34:05.396Z,4.20
2024-02-17T11:37:09.023Z,4.60
2024-02-17T11:40:11.529Z,4.50
2024-02-17T11:43:13.525Z,4.37
2024-02-17T11:46:37.597Z,4.37
2024-02-17T11:49:40.265Z,4.30
2024-02-17T11:52:43.735Z,4.20
2024-02-17T11:56:01.625Z,4.37
2024-02-17T11:59:21.689Z,4.10
2024-02-17T12:02:25.197Z,4.80
2024-02-17T12:05:27.280Z,3.37
2024-02-17T12:08:30.254Z,3.63
2024-02-17T12:11:32.922Z,4.07
2024-02-17T12:14:36.048Z,2.30
2024-02-17T12:17:45.205Z,1.60
2024-02-17T12:20:51.062Z,2.43
2024-02-17T12:23:53.965Z,1.90
2024-02-17T12:26:56.545Z,2.10
2024-02-17T12:29:59.075Z,1.80
2024-02-17T12:33:08.215Z,2.10
2024-02-17T12:36:16.002Z,1.90
2024-02-17T12:39:18.092Z,1.97
2024-02-17T12:42:20.834Z,2.60
2024-02-17T12:45:31.899Z,2.87
2024-02-17T12:48:34.191Z,4.20
2024-02-17T12:51:39.678Z,3.30
2024-02-17T12:54:42.312Z,2.87
2024-02-17T12:57:45.192Z,2.90
2024-02-17T13:00:47.749Z,2.90
2024-02-17T13:03:51.131Z,2.23
2024-02-17T13:06:54.120Z,2.40
2024-02-17T13:09:57.372Z,2.20
2024-02-17T13:12:59.744Z,2.20
2024-02-17T13:16:02.262Z,1.90
2024-02-17T13:19:06.252Z,1.70
2024-02-17T13:22:08.765Z,1.80
2024-02-17T13:25:12.233Z,1.60
2024-02-17T13:28:14.714Z,1.87
2024-02-17T13:31:20.882Z,1.40
2024-02-17T13:34:24.293Z,1.37
2024-02-17T13:37:27.446Z,1.00
2024-02-17T13:40:29.482Z,1.13
2024-02-17T13:43:33.998Z,1.00
2024-02-17T13:46:35.971Z,1.20
2024-02-17T13:49:38.767Z,1.33
2024-02-17T13:52:41.313Z,1.10
2024-02-17T13:55:44.517Z,1.37
2024-02-17T13:58:47.056Z,1.40
2024-02-17T14:01:49.102Z,1.40
2024-02-17T14:04:51.252Z,1.20
2024-02-17T14:07:53.335Z,1.20
2024-02-17T14:10:56.173Z,1.50
2024-02-17T14:14:02.811Z,1.27
2024-02-17T14:17:06.779Z,1.03
2024-02-17T14:20:11.283Z,1.47
2024-02-17T14:23:13.385Z,1.10
2024-02-17T14:26:15.439Z,1.33
2024-02-17T14:29:19.626Z,1.60
2024-02-17T14:32:22.159Z,1.10
2024-02-17T14:35:24.287Z,1.10
2024-02-17T14:38:26.352Z,1.27
2024-02-17T14:41:28.355Z,1.20
2024-02-17T14:44:32.023Z,1.40
2024-02-17T14:47:34.214Z,1.27
2024-02-17T14:50:36.376Z,1.40
2024-02-17T14:53:39.504Z,1.87
2024-02-17T14:56:41.693Z,1.67
2024-02-17T14:59:43.796Z,3.53
2024-02-17T15:02:47.023Z,2.97
2024-02-17T15:05:49.136Z,2.80
2024-02-17T15:08:51.323Z,2.60
2024-02-17T15:11:59.620Z,2.40
2024-02-17T15:15:06.126Z,2.60
2024-02-17T15:18:08.135Z,2.07
2024-02-17T15:21:12.020Z,2.87
2024-02-17T15:24:14.139Z,2.10
2024-02-17T15:27:16.679Z,2.40
2024-02-17T15:30:18.955Z,2.50
2024-02-17T15:33:21.450Z,2.90
2024-02-17T15:36:25.097Z,2.80
2024-02-17T15:39:30.193Z,2.83
2024-02-17T15:42:34.316Z,2.70
2024-02-17T15:45:37.619Z,2.43
2024-02-17T15:48:40.718Z,2.33
2024-02-17T15:51:43.029Z,3.73
2024-02-17T15:54:45.782Z,3.30
2024-02-17T15:57:54.258Z,2.63
2024-02-17T16:00:58.913Z,8.00
2024-02-17T16:04:01.339Z,6.63
2024-02-17T16:07:03.570Z,7.83
2024-02-17T16:10:06.050Z,6.83
2024-02-17T16:13:08.072Z,5.40
2024-02-17T16:16:10.761Z,4.80
2024-02-17T16:19:13.280Z,4.10
2024-02-17T16:22:17.914Z,3.27
2024-02-17T16:25:19.956Z,3.70
2024-02-17T16:28:21.990Z,3.40
2024-02-17T16:31:23.960Z,2.97
2024-02-17T16:34:26.310Z,3.70
2024-02-17T16:37:28.480Z,3.23
2024-02-17T16:40:30.737Z,2.20
2024-02-17T16:43:33.084Z,2.00
2024-02-17T16:46:35.212Z,2.30
2024-02-17T16:49:37.270Z,2.10
2024-02-17T16:52:39.349Z,9.07
2024-02-17T16:55:41.512Z,5.07
2024-02-17T16:58:45.060Z,3.00
2024-02-17T17:01:47.236Z,2.80
2024-02-17T17:04:50.974Z,2.80
2024-02-17T17:07:52.969Z,2.70
2024-02-17T17:10:55.069Z,2.63
2024-02-17T17:13:58.064Z,2.50
2024-02-17T17:17:01.069Z,2.50
2024-02-17T17:20:04.976Z,2.70
2024-02-17T17:23:07.479Z,2.80
2024-02-17T17:26:09.475Z,3.00
2024-02-17T17:29:11.512Z,3.10
2024-02-17T17:32:13.428Z,3.20
2024-02-17T17:35:16.069Z,3.40
2024-02-17T17:38:18.087Z,3.60
2024-02-17T17:41:20.067Z,3.97
2024-02-17T17:44:22.016Z,4.40
2024-02-17T17:47:24.127Z,4.97
2024-02-17T17:50:27.644Z,4.47
2024-02-17T17:53:30.090Z,4.53
2024-02-17T17:56:32.095Z,4.47
2024-02-17T17:59:35.860Z,3.33
2024-02-17T18:02:37.838Z,3.30
2024-02-17T18:05:40.108Z,3.07
2024-02-17T18:08:42.114Z,3.40
2024-02-17T18:11:44.167Z,3.30
2024-02-17T18:14:47.037Z,3.47
2024-02-17T18:17:49.303Z,3.43
2024-02-17T18:20:51.355Z,3.30
2024-02-17T18:23:53.329Z,3.47
2024-02-17T18:26:55.331Z,3.70
2024-02-17T18:29:57.528Z,4.43
2024-02-17T18:32:59.514Z,11.10
2024-02-17T18:36:01.684Z,12.63
2024-02-17T18:39:04.281Z,7.37
2024-02-17T18:42:09.437Z,5.13
2024-02-17T18:45:11.508Z,5.10
2024-02-17T18:48:13.981Z,4.73
2024-02-17T18:51:19.933Z,3.27
2024-02-17T18:54:22.190Z,3.23
2024-02-17T18:57:24.570Z,5.00
2024-02-17T19:00:26.752Z,4.87
2024-02-17T19:03:28.855Z,6.50
2024-02-17T19:06:31.777Z,4.57
2024-02-17T19:09:34.031Z,3.93
2024-02-17T19:12:36.046Z,3.37
2024-02-17T19:15:38.354Z,4.03
2024-02-17T19:18:43.382Z,4.90
2024-02-17T19:21:45.980Z,10.30
2024-02-17T19:24:48.982Z,5.30
2024-02-17T19:27:51.088Z,3.93
2024-02-17T19:30:53.522Z,3.90
2024-02-17T19:33:55.666Z,4.00
2024-02-17T19:36:58.618Z,4.53
2024-02-17T19:40:01.175Z,3.90
2024-02-17T19:43:03.462Z,4.23
2024-02-17T19:46:05.592Z,4.00
2024-02-17T19:49:12.015Z,6.53
2024-02-17T19:52:14.149Z,7.47
2024-02-17T19:55:16.324Z,8.17
2024-02-17T19:58:18.257Z,5.73
2024-02-17T20:01:24.601Z,4.53
2024-02-17T20:04:26.782Z,4.20
2024-02-17T20:07:30.275Z,4.30
2024-02-17T20:10:32.390Z,3.90
2024-02-17T20:13:34.362Z,4.23
2024-02-17T20:16:37.025Z,4.00
2024-02-17T20:19:39.202Z,4.67
2024-02-17T20:22:41.807Z,4.70
2024-02-17T20:25:43.917Z,5.20
2024-02-17T20:28:46.388Z,4.23
2024-02-17T20:31:48.922Z,4.20
2024-02-17T20:34:51.180Z,3.57
2024-02-17T20:37:53.336Z,3.77
2024-02-17T20:40:55.322Z,8.33
2024-02-17T20:43:57.376Z,4.63
2024-02-17T20:46:59.422Z,4.27
2024-02-17T20:50:01.985Z,4.70
2024-02-17T20:53:04.229Z,4.43
2024-02-17T20:56:09.656Z,4.30
2024-02-17T20:59:17.872Z,4.47
2024-02-17T21:02:23.932Z,5.00
2024-02-17T21:05:25.953Z,4.47
2024-02-17T21:08:28.040Z,3.90
2024-02-17T21:11:30.450Z,3.50
2024-02-17T21:14:32.482Z,4.10
2024-02-17T21:17:35.079Z,4.37
2024-02-17T21:20:38.557Z,4.83
2024-02-17T21:23:41.386Z,4.33
2024-02-17T21:26:44.534Z,4.87
2024-02-17T21:29:49.952Z,4.63
2024-02-17T21:32:52.228Z,4.20
2024-02-17T21:35:54.426Z,4.17
2024-02-17T21:38:56.802Z,3.97
2024-02-17T21:41:58.806Z,3.83
2024-02-17T21:45:00.991Z,3.93
2024-02-17T21:48:03.032Z,4.53
2024-02-17T21:51:05.413Z,3.90
2024-02-17T21:54:07.626Z,4.00
2024-02-17T21:57:10.916Z,4.23
2024-02-17T22:00:14.026Z,3.37
2024-02-17T22:03:18.053Z,3.57
2024-02-17T22:06:20.162Z,3.60
2024-02-17T22:09:22.240Z,3.50
2024-02-17T22:12:24.408Z,3.47
2024-02-17T22:15:26.543Z,3.50
2024-02-17T22:18:28.606Z,4.10
2024-02-17T22:21:31.476Z,4.20
2024-02-17T22:24:33.498Z,4.60
2024-02-17T22:27:35.592Z,4.00
2024-02-17T22:30:37.661Z,3.50
2024-02-17T22:33:40.568Z,3.53
2024-02-17T22:36:42.747Z,4.20
2024-02-17T22:39:44.854Z,3.80
2024-02-17T22:42:47.114Z,4.33
2024-02-17T22:45:50.487Z,3.37
2024-02-17T22:48:52.645Z,3.83
2024-02-17T22:51:54.834Z,4.20
2024-02-17T22:54:57.020Z,3.60
2024-02-17T22:57:59.505Z,3.33
2024-02-17T23:01:01.710Z,3.43
2024-02-17T23:04:06.482Z,3.40
2024-02-17T23:07:09.369Z,3.50
2024-02-17T23:10:11.608Z,3.10
2024-02-17T23:13:13.569Z,3.47
2024-02-17T23:16:16.414Z,3.30
2024-02-17T23:19:19.071Z,3.13
2024-02-17T23:22:21.312Z,3.20
2024-02-17T23:25:24.778Z,3.27
2024-02-17T23:28:26.924Z,3.43
2024-02-17T23:31:28.899Z,3.73
2024-02-17T23:34:30.985Z,3.77
2024-02-17T23:37:33.212Z,3.80
2024-02-17T23:40:36.036Z,2.87
2024-02-17T23:43:38.485Z,3.37
2024-02-17T23:46:40.442Z,3.87
2024-02-17T23:49:42.760Z,3.43
2024-02-17T23:52:45.052Z,3.50
2024-02-17T23:55:47.059Z,2.73
2024-02-17T23:58:49.096Z,3.30
